Dietrich, Idaho
Current Conditions -  °F | °C
As of 10:53 PM on Tuesday 25 Nov 2014 (Local Time) from KJER Reporting Station
Overcast Overcast  
Wind Chill: 39°   Ceiling: 5000
Heat Index: 46°   Visibility: 10mi
Dew Point: 36°   Wind: 16mph
Humidity: 68%   Direction: 230°SW
Pressure: 30.29"   Gusts: NA
Location:  42.91°N, 114.27°W
Report Text: KJER 260553Z AUTO 23014KT 10SM OVC050 08/02 A3029 RMK AO2 SLP256 T00780022 10106 20078 53010
Loading
Personal Weather Stations






























Interactive Weather Map New forecast layout! Learn more

10-Day Weather Forecast

Advertisements
Track Severe Weather on mobile